createdAt,value
2023-05-06T00:00:53.086Z,29.29
2023-05-06T00:02:58.429Z,29.46
2023-05-06T00:05:03.648Z,29.68
2023-05-06T00:07:08.703Z,29.64
2023-05-06T00:09:13.766Z,29.72
2023-05-06T00:11:18.814Z,29.77
2023-05-06T00:13:23.884Z,29.93
2023-05-06T00:15:32.020Z,29.92
2023-05-06T00:17:37.740Z,29.39
2023-05-06T00:19:42.974Z,28.3
2023-05-06T00:21:47.991Z,28.11
2023-05-06T00:23:53.094Z,28.04
2023-05-06T00:25:58.212Z,28.09
2023-05-06T00:28:03.338Z,28.03
2023-05-06T00:30:08.336Z,28
2023-05-06T00:32:13.763Z,27.98
2023-05-06T00:34:18.979Z,28
2023-05-06T00:36:23.972Z,28
2023-05-06T00:38:29.028Z,27.98
2023-05-06T00:40:34.043Z,28.05
2023-05-06T00:42:39.131Z,28.05
2023-05-06T00:44:44.276Z,28.16
2023-05-06T00:46:49.410Z,28.16
2023-05-06T00:48:54.580Z,28.16
2023-05-06T00:50:59.652Z,28.23
2023-05-06T00:53:04.866Z,28.25
2023-05-06T00:55:10.452Z,28.2
2023-05-06T00:57:15.562Z,28.17
2023-05-06T00:59:20.625Z,28.23
2023-05-06T01:01:25.783Z,28.26
2023-05-06T01:03:31.693Z,28.24
2023-05-06T01:05:36.811Z,28.27
2023-05-06T01:07:41.955Z,28.34
2023-05-06T01:09:47.051Z,28.37
2023-05-06T01:11:52.137Z,28.3
2023-05-06T01:13:57.153Z,28.33
2023-05-06T01:16:02.315Z,28.49
2023-05-06T01:18:07.492Z,28.83
2023-05-06T01:20:12.610Z,28.63
2023-05-06T01:22:17.638Z,28.61
2023-05-06T01:24:22.671Z,28.52
2023-05-06T01:26:27.764Z,28.56
2023-05-06T01:28:32.816Z,28.49
2023-05-06T01:30:37.817Z,28.51
2023-05-06T01:32:43.029Z,28.45
2023-05-06T01:34:48.223Z,28.5
2023-05-06T01:36:53.284Z,28.5
2023-05-06T01:38:58.330Z,28.6
2023-05-06T01:41:03.413Z,28.61
2023-05-06T01:43:08.526Z,28.55
2023-05-06T01:45:13.852Z,28.6
2023-05-06T01:47:18.908Z,28.51
2023-05-06T01:49:23.976Z,28.54
2023-05-06T01:51:29.106Z,28.48
2023-05-06T01:53:34.139Z,28.42
2023-05-06T01:55:39.189Z,28.47
2023-05-06T01:57:44.321Z,28.51
2023-05-06T01:59:49.441Z,28.58
2023-05-06T02:01:55.026Z,28.52
2023-05-06T02:04:00.441Z,28.5
2023-05-06T02:06:05.596Z,28.5
2023-05-06T02:08:10.613Z,28.45
2023-05-06T02:10:15.793Z,28.48
2023-05-06T02:12:20.825Z,28.51
2023-05-06T02:14:25.839Z,28.64
2023-05-06T02:16:31.144Z,28.76
2023-05-06T02:18:36.298Z,28.64
2023-05-06T02:20:41.461Z,28.62
2023-05-06T02:22:46.500Z,28.62
2023-05-06T02:24:51.540Z,28.55
2023-05-06T02:26:56.590Z,28.62
2023-05-06T02:29:01.622Z,28.52
2023-05-06T02:31:06.923Z,28.57
2023-05-06T02:33:11.961Z,28.64
2023-05-06T02:35:16.984Z,28.58
2023-05-06T02:37:22.117Z,28.58
2023-05-06T02:39:27.210Z,28.59
2023-05-06T02:41:32.323Z,28.59
2023-05-06T02:43:37.381Z,28.66
2023-05-06T02:45:42.557Z,28.76
2023-05-06T02:47:47.903Z,28.74
2023-05-06T02:49:53.020Z,28.77
2023-05-06T02:51:58.171Z,28.84
2023-05-06T02:54:03.221Z,28.84
2023-05-06T02:56:08.269Z,28.83
2023-05-06T02:58:13.322Z,28.8
2023-05-06T03:00:18.446Z,29.01
2023-05-06T03:02:23.694Z,28.76
2023-05-06T03:04:28.848Z,28.79
2023-05-06T03:06:34.024Z,28.81
2023-05-06T03:08:39.046Z,28.75
2023-05-06T03:10:44.128Z,28.75
2023-05-06T03:12:49.395Z,28.75
2023-05-06T03:14:55.325Z,28.76
2023-05-06T03:17:00.697Z,28.69
2023-05-06T03:19:05.731Z,28.71
2023-05-06T03:21:11.036Z,28.71
2023-05-06T03:23:16.158Z,28.67
2023-05-06T03:25:21.205Z,28.74
2023-05-06T03:27:26.256Z,28.76
2023-05-06T03:29:31.275Z,28.77
2023-05-06T03:31:36.460Z,28.85
2023-05-06T03:33:41.545Z,28.85
2023-05-06T03:35:46.598Z,28.88
2023-05-06T03:37:51.773Z,28.92
2023-05-06T03:39:56.784Z,28.96
2023-05-06T03:42:01.802Z,29.02
2023-05-06T03:44:06.877Z,29.07
2023-05-06T03:46:12.041Z,29.07
2023-05-06T03:48:17.104Z,29.19
2023-05-06T03:50:34.542Z,29.33
2023-05-06T03:52:39.549Z,29.39
2023-05-06T03:54:44.573Z,29.44
2023-05-06T03:56:49.632Z,29.44
2023-05-06T03:58:54.753Z,29.45
2023-05-06T04:00:59.897Z,29.56
2023-05-06T04:03:05.123Z,29.51
2023-05-06T04:05:11.135Z,29.57
2023-05-06T04:07:16.344Z,29.65
2023-05-06T04:09:21.391Z,29.68
2023-05-06T04:11:28.035Z,29.82
2023-05-06T04:13:34.689Z,29.79
2023-05-06T04:15:39.852Z,29.75
2023-05-06T04:17:45.026Z,29.83
2023-05-06T04:19:50.185Z,29.82
2023-05-06T04:21:55.317Z,29.86
2023-05-06T04:24:00.397Z,29.87
2023-05-06T04:26:05.430Z,29.93
2023-05-06T04:28:10.574Z,29.97
2023-05-06T04:30:15.663Z,30.05
2023-05-06T04:32:20.720Z,30.1
2023-05-06T04:34:25.834Z,30.16
2023-05-06T04:36:30.849Z,30.2
2023-05-06T04:38:35.881Z,30.2
2023-05-06T04:40:40.954Z,30.23
2023-05-06T04:42:46.085Z,30.22
2023-05-06T04:44:51.279Z,30.18
2023-05-06T04:46:56.299Z,30.16
2023-05-06T04:49:01.341Z,30.21
2023-05-06T04:51:06.534Z,30.18
2023-05-06T04:53:11.624Z,30.17
2023-05-06T04:55:16.703Z,30.11
2023-05-06T04:57:21.722Z,30.12
2023-05-06T04:59:26.752Z,30.11
2023-05-06T05:01:32.021Z,30.08
2023-05-06T05:03:37.289Z,30.09
2023-05-06T05:05:42.338Z,30.29
2023-05-06T05:07:47.393Z,30.23
2023-05-06T05:09:52.503Z,30.04
2023-05-06T05:11:57.651Z,29.93
2023-05-06T05:14:04.825Z,30.09
2023-05-06T05:16:09.840Z,30.02
2023-05-06T05:18:14.931Z,29.9
2023-05-06T05:20:19.995Z,29.96
2023-05-06T05:22:25.054Z,30.23
2023-05-06T05:24:30.045Z,29.95
2023-05-06T05:26:35.108Z,30.15
2023-05-06T05:28:40.165Z,29.69
2023-05-06T05:30:45.180Z,29.6
2023-05-06T05:32:50.459Z,29.65
2023-05-06T05:34:55.644Z,29.59
2023-05-06T05:37:01.023Z,29.59
2023-05-06T05:39:06.137Z,29.59
2023-05-06T05:41:11.324Z,29.64
2023-05-06T05:43:16.388Z,29.6
2023-05-06T05:45:21.453Z,29.67
2023-05-06T05:47:26.588Z,29.74
2023-05-06T05:49:31.685Z,29.78
2023-05-06T05:51:36.846Z,29.85
2023-05-06T05:53:41.881Z,30.05
2023-05-06T05:55:47.001Z,30.03
2023-05-06T05:57:52.018Z,30.1
2023-05-06T05:59:57.024Z,30.21
2023-05-06T06:02:02.101Z,30.24
2023-05-06T06:04:07.860Z,30.3
2023-05-06T06:06:13.132Z,30.34
2023-05-06T06:08:18.184Z,30.28
2023-05-06T06:10:23.305Z,30.33
2023-05-06T06:12:28.354Z,30.37
2023-05-06T06:14:33.431Z,30.38
2023-05-06T06:16:38.863Z,30.47
2023-05-06T06:18:44.080Z,30.52
2023-05-06T06:20:50.429Z,30.56
2023-05-06T06:22:57.368Z,30.63
2023-05-06T06:25:02.425Z,30.68
2023-05-06T06:27:07.539Z,30.75
2023-05-06T06:29:12.662Z,30.97
2023-05-06T06:31:17.861Z,30.92
2023-05-06T06:33:22.985Z,31.09
2023-05-06T06:35:27.990Z,31.33
2023-05-06T06:37:33.055Z,31.29
2023-05-06T06:39:38.125Z,31.51
2023-05-06T06:41:43.205Z,31.58
2023-05-06T06:43:48.264Z,31.67
2023-05-06T06:45:53.553Z,31.74
2023-05-06T06:47:58.820Z,31.92
2023-05-06T06:50:03.897Z,31.76
2023-05-06T06:52:08.940Z,31.81
2023-05-06T06:54:13.968Z,31.93
2023-05-06T06:56:19.036Z,32.18
2023-05-06T06:58:24.183Z,32.19
2023-05-06T07:00:29.213Z,32.17
2023-05-06T07:02:34.370Z,32.16
2023-05-06T07:04:39.792Z,32.12
2023-05-06T07:06:44.856Z,32.3
2023-05-06T07:08:49.888Z,32.42
2023-05-06T07:10:55.051Z,32.23
2023-05-06T07:13:00.326Z,32.33
2023-05-06T07:15:05.548Z,32.29
2023-05-06T07:17:10.734Z,32.36
2023-05-06T07:19:15.883Z,32.31
2023-05-06T07:21:21.004Z,32.41
2023-05-06T07:23:26.037Z,32.38
2023-05-06T07:25:31.100Z,32.47
2023-05-06T07:27:36.119Z,32.7
2023-05-06T07:29:41.146Z,32.65
2023-05-06T07:31:46.487Z,32.57
2023-05-06T07:33:51.615Z,32.58
2023-05-06T07:35:56.662Z,32.61
2023-05-06T07:38:01.722Z,32.66
2023-05-06T07:40:06.807Z,32.74
2023-05-06T07:42:11.918Z,32.8
2023-05-06T07:44:16.939Z,32.85
2023-05-06T07:46:22.495Z,33.05
2023-05-06T07:48:27.761Z,33.03
2023-05-06T07:50:32.805Z,32.86
2023-05-06T07:52:37.984Z,32.94
2023-05-06T07:54:42.980Z,32.99
2023-05-06T07:56:48.068Z,32.98
2023-05-06T07:58:53.107Z,32.92
2023-05-06T08:00:58.152Z,32.98
2023-05-06T08:03:03.621Z,33.06
2023-05-06T08:05:09.052Z,33.09
2023-05-06T08:07:14.321Z,33.02
2023-05-06T08:09:24.704Z,33.02
2023-05-06T08:11:29.782Z,33.06
2023-05-06T08:13:34.858Z,33.11
2023-05-06T08:15:39.887Z,33.25
2023-05-06T08:17:45.118Z,33.24
2023-05-06T08:19:50.237Z,33.33
2023-05-06T08:21:55.301Z,33.28
2023-05-06T08:24:00.357Z,33.33
2023-05-06T08:26:05.343Z,33.19
2023-05-06T08:28:10.377Z,33.33
2023-05-06T08:30:15.404Z,33.16
2023-05-06T08:32:20.539Z,33
2023-05-06T08:34:25.594Z,33.28
2023-05-06T08:36:30.650Z,33.18
2023-05-06T08:38:35.723Z,32.91
2023-05-06T08:40:40.776Z,33.36
2023-05-06T08:42:45.796Z,33.83
2023-05-06T08:44:50.976Z,33.67
2023-05-06T08:46:56.351Z,33.66
2023-05-06T08:49:01.565Z,33.88
2023-05-06T08:51:06.913Z,33.91
2023-05-06T08:53:12.079Z,34.26
2023-05-06T08:55:17.169Z,34.39
2023-05-06T08:57:22.248Z,34.28
2023-05-06T08:59:27.479Z,34.34
2023-05-06T09:01:32.734Z,34.21
2023-05-06T09:03:38.011Z,33.99
2023-05-06T09:05:43.284Z,34.64
2023-05-06T09:07:48.473Z,34.75
2023-05-06T09:09:53.656Z,35.1
2023-05-06T09:11:59.091Z,34.96
2023-05-06T09:14:04.127Z,34.76
2023-05-06T09:16:09.319Z,34.63
2023-05-06T09:18:14.535Z,34.7
2023-05-06T09:20:19.700Z,34.81
2023-05-06T09:22:24.906Z,34.91
2023-05-06T09:24:30.084Z,34.82
2023-05-06T09:26:35.140Z,34.82
2023-05-06T09:28:40.453Z,34.87
2023-05-06T09:30:45.618Z,35.17
2023-05-06T09:32:50.834Z,34.29
2023-05-06T09:34:55.866Z,34.53
2023-05-06T09:37:00.951Z,34.44
2023-05-06T09:39:06.053Z,34.47
2023-05-06T09:41:11.132Z,34.84
2023-05-06T09:43:16.192Z,34.68
2023-05-06T09:45:21.333Z,34.61
2023-05-06T09:47:26.674Z,34.52
2023-05-06T09:49:31.818Z,34.57
2023-05-06T09:51:36.876Z,34.42
2023-05-06T09:53:42.154Z,34.67
2023-05-06T09:55:47.248Z,34.63
2023-05-06T09:57:52.359Z,34.8
2023-05-06T09:59:57.519Z,34.8
2023-05-06T10:02:02.824Z,35.33
2023-05-06T10:04:08.927Z,35.18
2023-05-06T10:06:14.102Z,35.03
2023-05-06T10:08:19.205Z,35.17
2023-05-06T10:10:27.657Z,35.31
2023-05-06T10:12:32.839Z,35.87
2023-05-06T10:14:38.004Z,35.9
2023-05-06T10:16:43.371Z,36.03
2023-05-06T10:18:48.488Z,36.21
2023-05-06T10:20:53.637Z,36.14
2023-05-06T10:22:59.303Z,36.38
2023-05-06T10:25:04.550Z,36.13
2023-05-06T10:27:09.674Z,36.61
2023-05-06T10:29:14.712Z,36.55
2023-05-06T10:31:19.908Z,36.39
2023-05-06T10:33:24.978Z,36.41
2023-05-06T10:35:30.073Z,36.67
2023-05-06T10:37:35.139Z,36.21
2023-05-06T10:39:43.175Z,36.53
2023-05-06T10:41:48.237Z,36.56
2023-05-06T10:43:53.317Z,36.18
2023-05-06T10:45:58.629Z,35.88
2023-05-06T10:48:04.102Z,36.64
2023-05-06T10:50:09.309Z,36.04
2023-05-06T10:52:14.626Z,35.98
2023-05-06T10:54:19.862Z,35.9
2023-05-06T10:56:25.074Z,35.55
2023-05-06T10:58:30.167Z,35.38
2023-05-06T11:00:35.227Z,35.6
2023-05-06T11:02:40.594Z,35.62
2023-05-06T11:04:45.746Z,35.48
2023-05-06T11:06:50.969Z,35.44
2023-05-06T11:08:56.020Z,35.33
2023-05-06T11:11:01.258Z,35.29
2023-05-06T11:13:06.529Z,35.35
2023-05-06T11:15:12.212Z,35.62
2023-05-06T11:17:17.285Z,35.76
2023-05-06T11:19:22.406Z,35.77
2023-05-06T11:21:27.404Z,36.03
2023-05-06T11:23:32.439Z,35.84
2023-05-06T11:25:37.546Z,36.01
2023-05-06T11:27:42.626Z,36.13
2023-05-06T11:29:47.807Z,36.12
2023-05-06T11:31:52.992Z,36.56
2023-05-06T11:33:58.035Z,36.43
2023-05-06T11:36:03.315Z,36.34
2023-05-06T11:38:08.665Z,36.41
2023-05-06T11:40:14.174Z,36.41
2023-05-06T11:42:19.624Z,36.64
2023-05-06T11:44:24.677Z,36.4
2023-05-06T11:46:30.077Z,36.64
2023-05-06T11:48:35.158Z,36.56
2023-05-06T11:50:40.218Z,36.36
2023-05-06T11:52:45.636Z,36.54
2023-05-06T11:54:52.641Z,36.43
2023-05-06T11:56:57.837Z,36.37
2023-05-06T11:59:02.892Z,36.33
2023-05-06T12:01:08.034Z,36.32
2023-05-06T12:03:13.361Z,36.49
2023-05-06T12:05:18.528Z,36.33
2023-05-06T12:07:23.697Z,36.22
2023-05-06T12:09:28.842Z,36.43
2023-05-06T12:11:33.863Z,36.44
2023-05-06T12:13:39.260Z,36.37
2023-05-06T12:15:44.434Z,36.39
2023-05-06T12:17:49.683Z,36.4
2023-05-06T12:19:54.738Z,36.56
2023-05-06T12:21:59.871Z,36.63
2023-05-06T12:24:05.198Z,36.66
2023-05-06T12:26:10.280Z,36.7
2023-05-06T12:28:15.414Z,36.61
2023-05-06T12:30:20.594Z,36.63
2023-05-06T12:32:25.825Z,36.92
2023-05-06T12:34:30.967Z,37.04
2023-05-06T12:36:36.026Z,37.1
2023-05-06T12:38:41.060Z,37.32
2023-05-06T12:40:46.011Z,37.68
2023-05-06T12:42:51.037Z,37.61
2023-05-06T12:44:56.212Z,37.7
2023-05-06T12:47:01.417Z,37.47
2023-05-06T12:49:06.540Z,37.38
2023-05-06T12:51:11.636Z,37.71
2023-05-06T12:53:16.728Z,37.67
2023-05-06T12:55:21.857Z,37.73
2023-05-06T12:57:26.941Z,37.85
2023-05-06T12:59:32.002Z,37.9
2023-05-06T13:01:37.276Z,37.9
2023-05-06T13:03:42.617Z,37.68
2023-05-06T13:05:47.728Z,37.74
2023-05-06T13:07:52.815Z,37.6
2023-05-06T13:09:57.855Z,37.57
2023-05-06T13:12:03.065Z,37.56
2023-05-06T13:14:08.054Z,37.42
2023-05-06T13:16:13.092Z,37.48
2023-05-06T13:18:18.198Z,37.57
2023-05-06T13:20:23.204Z,37.47
2023-05-06T13:22:28.223Z,37.4
2023-05-06T13:24:33.368Z,37.44
2023-05-06T13:26:38.354Z,37.36
2023-05-06T13:28:43.468Z,37.32
2023-05-06T13:30:48.622Z,37.22
2023-05-06T13:32:53.974Z,37.17
2023-05-06T13:34:59.011Z,37.16
2023-05-06T13:37:04.088Z,37.11
2023-05-06T13:39:09.148Z,37.22
2023-05-06T13:41:14.227Z,37.17
2023-05-06T13:43:19.391Z,37.3
2023-05-06T13:45:24.450Z,37.33
2023-05-06T13:47:29.827Z,37.41
2023-05-06T13:49:34.953Z,37.32
2023-05-06T13:51:40.114Z,37.29
2023-05-06T13:53:45.271Z,37.37
2023-05-06T13:55:50.335Z,37.31
2023-05-06T13:57:55.505Z,37.37
2023-05-06T14:00:00.685Z,37.32
2023-05-06T14:02:10.973Z,37.44
2023-05-06T14:04:16.151Z,37.37
2023-05-06T14:06:21.230Z,37.33
2023-05-06T14:08:26.299Z,37.28
2023-05-06T14:10:31.384Z,37.25
2023-05-06T14:12:36.580Z,37.21
2023-05-06T14:14:41.808Z,37.31
2023-05-06T14:16:47.197Z,36.84
2023-05-06T14:18:52.261Z,36.72
2023-05-06T14:20:57.312Z,37.11
2023-05-06T14:23:02.406Z,37
2023-05-06T14:25:07.594Z,37.05
2023-05-06T14:27:12.942Z,36.92
2023-05-06T14:29:18.065Z,36.8
2023-05-06T14:31:23.421Z,36.89
2023-05-06T14:33:28.617Z,37
2023-05-06T14:35:33.761Z,37.28
2023-05-06T14:37:38.889Z,37.54
2023-05-06T14:39:43.940Z,37.45
2023-05-06T14:41:48.976Z,37.23
2023-05-06T14:43:54.044Z,37.29
2023-05-06T14:45:59.253Z,37.17
2023-05-06T14:48:04.591Z,37.04
2023-05-06T14:50:09.698Z,37.02
2023-05-06T14:52:14.865Z,37.23
2023-05-06T14:54:20.430Z,37.13
2023-05-06T14:56:25.744Z,36.98
2023-05-06T14:58:31.198Z,36.96
2023-05-06T15:00:36.439Z,36.62
2023-05-06T15:02:42.018Z,36.5
2023-05-06T15:04:47.478Z,36.42
2023-05-06T15:06:52.518Z,36.45
2023-05-06T15:08:57.671Z,36.22
2023-05-06T15:11:06.005Z,36.89
2023-05-06T15:13:11.199Z,37.29
2023-05-06T15:15:16.580Z,37.23
2023-05-06T15:17:21.637Z,37.4
2023-05-06T15:19:26.715Z,37.51
2023-05-06T15:21:31.780Z,37.67
2023-05-06T15:23:36.857Z,37.87
2023-05-06T15:25:42.780Z,37.61
2023-05-06T15:27:47.988Z,38.22
2023-05-06T15:29:53.069Z,38.03
2023-05-06T15:31:58.344Z,37.7
2023-05-06T15:34:03.452Z,37.75
2023-05-06T15:36:08.544Z,37.66
2023-05-06T15:38:13.546Z,37.52
2023-05-06T15:40:18.630Z,37.39
2023-05-06T15:42:23.714Z,37.3
2023-05-06T15:44:29.519Z,37.2
2023-05-06T15:46:34.842Z,37.29
2023-05-06T15:48:39.960Z,37.56
2023-05-06T15:50:45.000Z,37.31
2023-05-06T15:52:50.089Z,37.32
2023-05-06T15:55:01.397Z,37.38
2023-05-06T15:57:08.953Z,36.98
2023-05-06T15:59:13.978Z,37.03
2023-05-06T16:03:57.750Z,36.92
2023-05-06T16:06:03.028Z,36.86
2023-05-06T16:08:08.123Z,37.1
2023-05-06T16:10:14.110Z,36.98
2023-05-06T16:12:19.192Z,36.98
2023-05-06T16:14:24.303Z,36.9
2023-05-06T16:16:29.621Z,36.82
2023-05-06T16:18:34.755Z,36.75
2023-05-06T16:20:40.013Z,36.77
2023-05-06T16:22:45.099Z,36.73
2023-05-06T16:24:50.281Z,36.82
2023-05-06T16:26:57.096Z,36.73
2023-05-06T16:29:02.411Z,36.64
2023-05-06T16:31:07.788Z,36.65
2023-05-06T16:33:13.115Z,36.52
2023-05-06T16:35:18.229Z,36.97
2023-05-06T16:37:23.358Z,37.31
2023-05-06T16:39:28.518Z,37.14
2023-05-06T16:41:33.651Z,37.14
2023-05-06T16:43:38.756Z,37.02
2023-05-06T16:45:43.851Z,36.99
2023-05-06T16:47:49.193Z,37.39
2023-05-06T16:49:54.374Z,37.24
2023-05-06T16:51:59.632Z,36.89
2023-05-06T16:54:04.785Z,36.78
2023-05-06T16:56:10.046Z,37.2
2023-05-06T16:58:15.171Z,36.81
2023-05-06T17:00:20.363Z,36.91
2023-05-06T17:02:25.560Z,36.99
2023-05-06T17:04:30.738Z,37.12
2023-05-06T17:06:35.804Z,37.57
2023-05-06T17:08:41.265Z,37.55
2023-05-06T17:10:46.409Z,37.75
2023-05-06T17:12:51.745Z,37.4
2023-05-06T17:14:57.265Z,37.54
2023-05-06T17:17:02.834Z,37.58
2023-05-06T17:19:08.061Z,37.5
2023-05-06T17:21:13.289Z,37.38
2023-05-06T17:23:18.496Z,37.56
2023-05-06T17:25:23.637Z,37.54
2023-05-06T17:27:28.989Z,37.48
2023-05-06T17:29:34.548Z,37.5
2023-05-06T17:31:39.719Z,37.56
2023-05-06T17:33:45.106Z,37.67
2023-05-06T17:35:50.362Z,37.72
2023-05-06T17:37:55.579Z,37.58
2023-05-06T17:40:00.778Z,37.61
2023-05-06T17:42:05.919Z,37.85
2023-05-06T17:44:11.014Z,37.63
2023-05-06T17:46:19.401Z,37.82
2023-05-06T17:48:24.667Z,37.64
2023-05-06T17:50:29.804Z,37.66
2023-05-06T17:52:34.893Z,37.62
2023-05-06T17:54:40.072Z,37.71
2023-05-06T17:56:45.391Z,37.81
2023-05-06T17:58:50.630Z,37.65
2023-05-06T18:00:55.694Z,37.86
2023-05-06T18:03:01.256Z,37.88
2023-05-06T18:05:06.530Z,38.05
2023-05-06T18:07:11.711Z,38.15
2023-05-06T18:09:16.784Z,38.04
2023-05-06T18:11:21.856Z,38.35
2023-05-06T18:13:27.432Z,38.5
2023-05-06T18:15:32.757Z,38.24
2023-05-06T18:17:38.099Z,38.48
2023-05-06T18:19:43.158Z,37.91
2023-05-06T18:21:48.313Z,36.81
2023-05-06T18:24:16.285Z,36.19
2023-05-06T18:26:47.404Z,35.92
2023-05-06T18:28:52.422Z,35.69
2023-05-06T18:30:57.492Z,35.66
2023-05-06T18:33:02.919Z,35.62
2023-05-06T18:35:08.162Z,35.55
2023-05-06T18:37:13.499Z,35.22
2023-05-06T18:39:18.635Z,34.53
2023-05-06T18:41:23.690Z,34.4
2023-05-06T18:43:28.782Z,34.33
2023-05-06T18:45:33.958Z,33.95
2023-05-06T18:47:39.173Z,33.87
2023-05-06T18:49:44.312Z,33.88
2023-05-06T18:51:49.432Z,34.51
2023-05-06T18:53:54.503Z,35.01
2023-05-06T18:55:59.640Z,33.81
2023-05-06T18:58:04.816Z,34.65
2023-05-06T19:00:09.866Z,33.51
2023-05-06T19:02:14.966Z,33.4
2023-05-06T19:04:20.291Z,33.17
2023-05-06T19:06:25.519Z,33.63
2023-05-06T19:08:30.800Z,33.43
2023-05-06T19:10:35.882Z,33.36
2023-05-06T19:12:41.092Z,33.58
2023-05-06T19:14:46.274Z,33.46
2023-05-06T19:16:51.931Z,33.15
2023-05-06T19:18:56.991Z,33.35
2023-05-06T19:21:02.060Z,33.36
2023-05-06T19:23:07.336Z,33.15
2023-05-06T19:25:13.120Z,33
2023-05-06T19:27:18.200Z,32.84
2023-05-06T19:29:23.366Z,32.88
2023-05-06T19:31:28.601Z,32.72
2023-05-06T19:33:33.924Z,32.53
2023-05-06T19:35:39.012Z,32.66
2023-05-06T19:37:44.091Z,32.52
2023-05-06T19:39:49.205Z,32.47
2023-05-06T19:41:54.299Z,32.35
2023-05-06T19:43:59.406Z,32.5
2023-05-06T19:46:04.626Z,32.31
2023-05-06T19:48:10.219Z,33.56
2023-05-06T19:50:15.806Z,32.69
2023-05-06T19:52:21.024Z,32.34
2023-05-06T19:54:26.126Z,32.41
2023-05-06T19:56:31.261Z,32.34
2023-05-06T19:58:36.323Z,32.24
2023-05-06T20:00:41.391Z,32.19
2023-05-06T20:02:46.857Z,32.12
2023-05-06T20:05:21.961Z,32.04
2023-05-06T20:07:27.090Z,32.32
2023-05-06T20:09:32.136Z,32.39
2023-05-06T20:11:37.193Z,33.05
2023-05-06T20:13:42.306Z,32.19
2023-05-06T20:15:47.622Z,31.87
2023-05-06T20:17:52.929Z,31.75
2023-05-06T20:19:58.134Z,32.07
2023-05-06T20:22:03.202Z,32.52
2023-05-06T20:24:08.287Z,31.83
2023-05-06T20:26:13.330Z,32.9
2023-05-06T20:28:18.445Z,32.53
2023-05-06T20:30:23.692Z,32.16
2023-05-06T20:32:28.907Z,32.07
2023-05-06T20:34:34.102Z,31.97
2023-05-06T20:36:39.160Z,32.1
2023-05-06T20:38:44.265Z,32.04
2023-05-06T20:40:49.341Z,31.91
2023-05-06T20:42:54.378Z,32.05
2023-05-06T20:44:59.695Z,32.13
2023-05-06T20:47:04.895Z,32.07
2023-05-06T20:49:10.002Z,32.05
2023-05-06T20:51:15.071Z,31.92
2023-05-06T20:53:20.427Z,31.68
2023-05-06T20:55:26.118Z,31.68
2023-05-06T20:57:31.284Z,31.63
2023-05-06T20:59:36.356Z,31.55
2023-05-06T21:01:41.840Z,31.45
2023-05-06T21:03:47.072Z,31.49
2023-05-06T21:05:52.182Z,31.47
2023-05-06T21:07:57.298Z,31.35
2023-05-06T21:10:02.385Z,31.47
2023-05-06T21:12:07.517Z,31.28
2023-05-06T21:14:12.602Z,31.31
2023-05-06T21:16:17.670Z,31.24
2023-05-06T21:18:23.366Z,31.31
2023-05-06T21:20:28.577Z,31.2
2023-05-06T21:22:33.602Z,31.21
2023-05-06T21:24:38.635Z,31.2
2023-05-06T21:26:43.707Z,31.18
2023-05-06T21:28:48.749Z,31.09
2023-05-06T21:30:53.915Z,31.16
2023-05-06T21:32:59.213Z,31.08
2023-05-06T21:35:04.393Z,31.12
2023-05-06T21:37:09.501Z,31.09
2023-05-06T21:39:14.651Z,31.05
2023-05-06T21:41:19.734Z,31.66
2023-05-06T21:43:24.773Z,31.65
2023-05-06T21:45:29.795Z,31.55
2023-05-06T21:47:35.045Z,31.4
2023-05-06T21:49:40.165Z,31.35
2023-05-06T21:51:45.395Z,31.51
2023-05-06T21:53:50.439Z,31.22
2023-05-06T21:55:55.603Z,31.17
2023-05-06T21:58:00.714Z,31.12
2023-05-06T22:00:05.761Z,31.09
2023-05-06T22:02:11.046Z,31.06
2023-05-06T22:04:16.261Z,30.96
2023-05-06T22:06:21.282Z,30.97
2023-05-06T22:08:26.471Z,30.98
2023-05-06T22:10:31.533Z,30.95
2023-05-06T22:12:36.732Z,30.84
2023-05-06T22:14:43.917Z,30.93
2023-05-06T22:16:49.013Z,30.85
2023-05-06T22:18:54.129Z,30.9
2023-05-06T22:20:59.261Z,30.92
2023-05-06T22:23:04.347Z,31
2023-05-06T22:25:10.296Z,31.01
2023-05-06T22:27:15.738Z,31.24
2023-05-06T22:29:20.917Z,30.92
2023-05-06T22:31:26.436Z,30.79
2023-05-06T22:33:31.614Z,31.67
2023-05-06T22:35:36.694Z,30.92
2023-05-06T22:37:41.776Z,30.88
2023-05-06T22:39:46.948Z,30.91
2023-05-06T22:41:51.998Z,30.92
2023-05-06T22:43:57.053Z,30.92
2023-05-06T22:46:02.316Z,30.79
2023-05-06T22:48:07.659Z,30.8
2023-05-06T22:50:12.877Z,30.92
2023-05-06T22:52:18.114Z,31.17
2023-05-06T22:54:23.281Z,31.09
2023-05-06T22:56:28.338Z,31.05
2023-05-06T22:58:33.380Z,31.36
2023-05-06T23:00:38.578Z,31.41
2023-05-06T23:02:43.921Z,31.82
2023-05-06T23:04:49.819Z,31.56
2023-05-06T23:06:54.836Z,31.79
2023-05-06T23:08:59.869Z,31.52
2023-05-06T23:11:04.942Z,31.35
2023-05-06T23:13:10.216Z,31.24
2023-05-06T23:15:15.577Z,31.25
2023-05-06T23:17:20.719Z,31.25
2023-05-06T23:19:25.699Z,31.49
2023-05-06T23:21:30.727Z,32.07
2023-05-06T23:23:35.818Z,31.51
2023-05-06T23:25:40.874Z,31.14
2023-05-06T23:27:45.956Z,31.26
2023-05-06T23:29:50.994Z,31.45
2023-05-06T23:31:56.141Z,31.53
2023-05-06T23:34:01.168Z,31.7
2023-05-06T23:36:06.235Z,31.75
2023-05-06T23:38:11.334Z,31.79
2023-05-06T23:40:16.512Z,31.8
2023-05-06T23:42:21.759Z,31.87
2023-05-06T23:44:26.980Z,31.95
2023-05-06T23:46:32.491Z,32.04
2023-05-06T23:48:37.645Z,32.04
2023-05-06T23:50:42.785Z,32.12
2023-05-06T23:52:48.226Z,32.11
2023-05-06T23:54:53.267Z,32.1
2023-05-06T23:56:58.479Z,32.07
2023-05-06T23:59:03.559Z,32.06
